sensor_id;sensor_type;location;lat;lon;timestamp;P1;durP1;ratioP1;P2;durP2;ratioP2
66012;SDS011;52783;50.502;8.190;2024-03-23T00:54:04;43.22;;;21.30;;
66012;SDS011;52783;50.502;8.190;2024-03-23T00:56:30;47.20;;;20.83;;
66012;SDS011;52783;50.502;8.190;2024-03-23T00:58:55;42.40;;;22.45;;
66012;SDS011;52783;50.502;8.190;2024-03-23T01:01:21;43.90;;;21.63;;
66012;SDS011;52783;50.502;8.190;2024-03-23T01:03:46;41.70;;;21.58;;
66012;SDS011;52783;50.502;8.190;2024-03-23T01:06:12;40.83;;;21.10;;
66012;SDS011;52783;50.502;8.190;2024-03-23T01:08:38;50.05;;;22.77;;
66012;SDS011;52783;50.502;8.190;2024-03-23T01:11:03;43.33;;;22.52;;
66012;SDS011;52783;50.502;8.190;2024-03-23T01:13:29;47.13;;;21.90;;
66012;SDS011;52783;50.502;8.190;2024-03-23T01:15:55;41.88;;;22.00;;
66012;SDS011;52783;50.502;8.190;2024-03-23T01:18:22;43.05;;;21.90;;
66012;SDS011;52783;50.502;8.190;2024-03-23T01:20:48;39.35;;;20.92;;
66012;SDS011;52783;50.502;8.190;2024-03-23T01:23:14;43.70;;;21.52;;
66012;SDS011;52783;50.502;8.190;2024-03-23T01:25:39;44.92;;;21.75;;
66012;SDS011;52783;50.502;8.190;2024-03-23T01:28:05;42.38;;;22.40;;
66012;SDS011;52783;50.502;8.190;2024-03-23T01:30:31;41.58;;;21.75;;
66012;SDS011;52783;50.502;8.190;2024-03-23T01:32:57;43.03;;;22.67;;
66012;SDS011;52783;50.502;8.190;2024-03-23T01:35:23;49.17;;;22.50;;
66012;SDS011;52783;50.502;8.190;2024-03-23T01:37:48;42.72;;;22.52;;
66012;SDS011;52783;50.502;8.190;2024-03-23T01:40:15;47.35;;;23.92;;
66012;SDS011;52783;50.502;8.190;2024-03-23T01:42:41;43.13;;;22.13;;
66012;SDS011;52783;50.502;8.190;2024-03-23T01:45:07;40.03;;;20.83;;
66012;SDS011;52783;50.502;8.190;2024-03-23T01:47:34;44.42;;;22.40;;
66012;SDS011;52783;50.502;8.190;2024-03-23T01:50:00;48.47;;;21.65;;
66012;SDS011;52783;50.502;8.190;2024-03-23T01:52:26;49.35;;;23.55;;
66012;SDS011;52783;50.502;8.190;2024-03-23T01:54:52;45.08;;;21.95;;
66012;SDS011;52783;50.502;8.190;2024-03-23T01:57:18;47.95;;;23.83;;
66012;SDS011;52783;50.502;8.190;2024-03-23T01:59:45;39.58;;;22.13;;
66012;SDS011;52783;50.502;8.190;2024-03-23T02:02:12;45.80;;;22.50;;
66012;SDS011;52783;50.502;8.190;2024-03-23T02:04:37;47.33;;;23.55;;
66012;SDS011;52783;50.502;8.190;2024-03-23T02:07:03;45.95;;;24.08;;
66012;SDS011;52783;50.502;8.190;2024-03-23T02:09:30;52.95;;;23.85;;
66012;SDS011;52783;50.502;8.190;2024-03-23T02:11:56;55.15;;;25.52;;
66012;SDS011;52783;50.502;8.190;2024-03-23T02:14:22;61.60;;;24.85;;
66012;SDS011;52783;50.502;8.190;2024-03-23T02:16:48;50.42;;;24.50;;
66012;SDS011;52783;50.502;8.190;2024-03-23T02:19:13;59.88;;;24.65;;
66012;SDS011;52783;50.502;8.190;2024-03-23T02:21:39;54.10;;;25.52;;
66012;SDS011;52783;50.502;8.190;2024-03-23T02:24:05;49.33;;;23.08;;
66012;SDS011;52783;50.502;8.190;2024-03-23T02:26:30;45.22;;;23.90;;
66012;SDS011;52783;50.502;8.190;2024-03-23T02:28:57;46.75;;;24.25;;
66012;SDS011;52783;50.502;8.190;2024-03-23T02:31:22;50.13;;;23.15;;
66012;SDS011;52783;50.502;8.190;2024-03-23T02:33:48;54.72;;;24.92;;
66012;SDS011;52783;50.502;8.190;2024-03-23T02:36:13;52.72;;;25.10;;
66012;SDS011;52783;50.502;8.190;2024-03-23T02:38:39;57.50;;;27.55;;
66012;SDS011;52783;50.502;8.190;2024-03-23T02:41:04;64.18;;;28.60;;
66012;SDS011;52783;50.502;8.190;2024-03-23T02:43:30;60.83;;;27.83;;
66012;SDS011;52783;50.502;8.190;2024-03-23T02:45:56;62.28;;;27.80;;
66012;SDS011;52783;50.502;8.190;2024-03-23T02:48:22;57.83;;;26.48;;
66012;SDS011;52783;50.502;8.190;2024-03-23T02:50:48;56.40;;;25.27;;
66012;SDS011;52783;50.502;8.190;2024-03-23T02:53:14;50.72;;;23.73;;
66012;SDS011;52783;50.502;8.190;2024-03-23T02:55:39;43.80;;;21.02;;
66012;SDS011;52783;50.502;8.190;2024-03-23T02:58:05;27.83;;;12.15;;
66012;SDS011;52783;50.502;8.190;2024-03-23T03:00:30;15.07;;;7.95;;
66012;SDS011;52783;50.502;8.190;2024-03-23T03:02:56;11.40;;;6.10;;
66012;SDS011;52783;50.502;8.190;2024-03-23T03:05:21;6.72;;;3.35;;
66012;SDS011;52783;50.502;8.190;2024-03-23T03:07:47;4.90;;;2.30;;
66012;SDS011;52783;50.502;8.190;2024-03-23T03:10:12;1.30;;;1.20;;
66012;SDS011;52783;50.502;8.190;2024-03-23T03:12:38;1.35;;;0.90;;
66012;SDS011;52783;50.502;8.190;2024-03-23T03:15:04;1.38;;;1.00;;
66012;SDS011;52783;50.502;8.190;2024-03-23T03:17:30;0.77;;;0.77;;
66012;SDS011;52783;50.502;8.190;2024-03-23T03:19:55;1.00;;;1.00;;
66012;SDS011;52783;50.502;8.190;2024-03-23T03:22:22;1.27;;;1.00;;
66012;SDS011;52783;50.502;8.190;2024-03-23T03:24:48;1.65;;;1.20;;
66012;SDS011;52783;50.502;8.190;2024-03-23T03:27:13;2.60;;;1.45;;
66012;SDS011;52783;50.502;8.190;2024-03-23T03:29:39;2.22;;;1.40;;
66012;SDS011;52783;50.502;8.190;2024-03-23T03:32:05;1.88;;;1.42;;
66012;SDS011;52783;50.502;8.190;2024-03-23T03:34:30;0.90;;;0.90;;
66012;SDS011;52783;50.502;8.190;2024-03-23T03:36:56;1.00;;;1.00;;
66012;SDS011;52783;50.502;8.190;2024-03-23T03:39:22;2.13;;;1.38;;
66012;SDS011;52783;50.502;8.190;2024-03-23T03:41:48;1.30;;;1.20;;
66012;SDS011;52783;50.502;8.190;2024-03-23T03:44:14;2.17;;;1.63;;
66012;SDS011;52783;50.502;8.190;2024-03-23T03:46:40;1.52;;;1.42;;
66012;SDS011;52783;50.502;8.190;2024-03-23T03:49:05;1.23;;;1.13;;
66012;SDS011;52783;50.502;8.190;2024-03-23T03:51:31;1.50;;;1.20;;
66012;SDS011;52783;50.502;8.190;2024-03-23T03:53:56;1.60;;;1.50;;
66012;SDS011;52783;50.502;8.190;2024-03-23T03:56:22;1.08;;;0.98;;
66012;SDS011;52783;50.502;8.190;2024-03-23T03:58:48;1.20;;;1.20;;
66012;SDS011;52783;50.502;8.190;2024-03-23T04:01:13;1.63;;;1.52;;
66012;SDS011;52783;50.502;8.190;2024-03-23T04:03:39;2.65;;;1.58;;
66012;SDS011;52783;50.502;8.190;2024-03-23T04:06:08;2.13;;;1.40;;
66012;SDS011;52783;50.502;8.190;2024-03-23T04:08:43;3.85;;;1.58;;
66012;SDS011;52783;50.502;8.190;2024-03-23T04:11:08;1.63;;;1.52;;
66012;SDS011;52783;50.502;8.190;2024-03-23T04:13:34;4.68;;;1.92;;
66012;SDS011;52783;50.502;8.190;2024-03-23T04:15:59;2.00;;;1.48;;
66012;SDS011;52783;50.502;8.190;2024-03-23T04:18:25;1.70;;;1.60;;
66012;SDS011;52783;50.502;8.190;2024-03-23T04:20:51;1.38;;;1.15;;
66012;SDS011;52783;50.502;8.190;2024-03-23T04:23:16;2.47;;;1.75;;
66012;SDS011;52783;50.502;8.190;2024-03-23T04:25:42;4.32;;;1.73;;
66012;SDS011;52783;50.502;8.190;2024-03-23T04:28:08;1.85;;;1.75;;
66012;SDS011;52783;50.502;8.190;2024-03-23T04:30:33;1.85;;;1.52;;
66012;SDS011;52783;50.502;8.190;2024-03-23T04:32:59;1.90;;;1.60;;
66012;SDS011;52783;50.502;8.190;2024-03-23T04:35:25;1.60;;;1.50;;
66012;SDS011;52783;50.502;8.190;2024-03-23T04:37:51;5.68;;;1.80;;
66012;SDS011;52783;50.502;8.190;2024-03-23T04:40:17;2.75;;;1.77;;
66012;SDS011;52783;50.502;8.190;2024-03-23T04:42:43;2.42;;;1.70;;
66012;SDS011;52783;50.502;8.190;2024-03-23T04:45:09;2.55;;;1.90;;
66012;SDS011;52783;50.502;8.190;2024-03-23T04:47:35;1.70;;;1.60;;
66012;SDS011;52783;50.502;8.190;2024-03-23T04:50:03;1.60;;;1.50;;
66012;SDS011;52783;50.502;8.190;2024-03-23T04:52:29;3.78;;;1.60;;
66012;SDS011;52783;50.502;8.190;2024-03-23T04:54:55;1.23;;;1.13;;
66012;SDS011;52783;50.502;8.190;2024-03-23T04:57:20;1.50;;;1.40;;
66012;SDS011;52783;50.502;8.190;2024-03-23T04:59:46;1.40;;;1.40;;
66012;SDS011;52783;50.502;8.190;2024-03-23T05:02:12;1.45;;;1.35;;
66012;SDS011;52783;50.502;8.190;2024-03-23T05:04:38;1.05;;;1.05;;
66012;SDS011;52783;50.502;8.190;2024-03-23T05:07:03;1.02;;;1.00;;
66012;SDS011;52783;50.502;8.190;2024-03-23T05:09:29;1.02;;;0.98;;
66012;SDS011;52783;50.502;8.190;2024-03-23T05:11:55;1.00;;;1.00;;
66012;SDS011;52783;50.502;8.190;2024-03-23T05:14:21;0.98;;;0.98;;
66012;SDS011;52783;50.502;8.190;2024-03-23T05:16:47;0.88;;;0.88;;
66012;SDS011;52783;50.502;8.190;2024-03-23T05:19:13;0.80;;;0.80;;
66012;SDS011;52783;50.502;8.190;2024-03-23T05:21:38;1.67;;;0.93;;
66012;SDS011;52783;50.502;8.190;2024-03-23T05:24:04;2.47;;;0.82;;
66012;SDS011;52783;50.502;8.190;2024-03-23T05:26:30;0.35;;;0.35;;
66012;SDS011;52783;50.502;8.190;2024-03-23T05:28:56;1.25;;;0.77;;
66012;SDS011;52783;50.502;8.190;2024-03-23T05:31:28;0.40;;;0.40;;
66012;SDS011;52783;50.502;8.190;2024-03-23T05:33:55;0.65;;;0.65;;
66012;SDS011;52783;50.502;8.190;2024-03-23T05:36:21;1.35;;;0.75;;
66012;SDS011;52783;50.502;8.190;2024-03-23T05:38:46;1.48;;;0.80;;
66012;SDS011;52783;50.502;8.190;2024-03-23T05:41:12;0.70;;;0.70;;
66012;SDS011;52783;50.502;8.190;2024-03-23T05:43:38;0.57;;;0.57;;
66012;SDS011;52783;50.502;8.190;2024-03-23T05:46:04;0.50;;;0.50;;
66012;SDS011;52783;50.502;8.190;2024-03-23T05:48:30;2.30;;;0.57;;
66012;SDS011;52783;50.502;8.190;2024-03-23T05:50:56;1.88;;;0.77;;
66012;SDS011;52783;50.502;8.190;2024-03-23T05:53:22;0.77;;;0.77;;
66012;SDS011;52783;50.502;8.190;2024-03-23T05:55:49;0.80;;;0.80;;
66012;SDS011;52783;50.502;8.190;2024-03-23T05:58:15;0.70;;;0.70;;
66012;SDS011;52783;50.502;8.190;2024-03-23T06:00:42;1.13;;;1.02;;
66012;SDS011;52783;50.502;8.190;2024-03-23T06:03:08;1.42;;;0.90;;
66012;SDS011;52783;50.502;8.190;2024-03-23T06:05:35;1.40;;;1.05;;
66012;SDS011;52783;50.502;8.190;2024-03-23T06:08:01;2.35;;;1.02;;
66012;SDS011;52783;50.502;8.190;2024-03-23T06:10:26;2.05;;;1.23;;
66012;SDS011;52783;50.502;8.190;2024-03-23T06:12:52;1.02;;;0.88;;
66012;SDS011;52783;50.502;8.190;2024-03-23T06:15:18;1.35;;;1.20;;
66012;SDS011;52783;50.502;8.190;2024-03-23T06:17:44;2.40;;;1.15;;
66012;SDS011;52783;50.502;8.190;2024-03-23T06:20:10;6.05;;;1.40;;
66012;SDS011;52783;50.502;8.190;2024-03-23T06:22:35;1.95;;;1.50;;
66012;SDS011;52783;50.502;8.190;2024-03-23T06:25:01;7.32;;;1.35;;
66012;SDS011;52783;50.502;8.190;2024-03-23T06:27:27;6.95;;;1.98;;
66012;SDS011;52783;50.502;8.190;2024-03-23T06:29:53;5.50;;;1.83;;
66012;SDS011;52783;50.502;8.190;2024-03-23T06:32:18;5.70;;;2.00;;
66012;SDS011;52783;50.502;8.190;2024-03-23T06:34:44;4.65;;;2.05;;
66012;SDS011;52783;50.502;8.190;2024-03-23T06:37:10;7.82;;;2.20;;
66012;SDS011;52783;50.502;8.190;2024-03-23T06:39:36;9.60;;;2.53;;
66012;SDS011;52783;50.502;8.190;2024-03-23T06:42:02;9.35;;;2.38;;
66012;SDS011;52783;50.502;8.190;2024-03-23T06:44:28;6.07;;;2.40;;
66012;SDS011;52783;50.502;8.190;2024-03-23T06:46:54;6.93;;;2.40;;
66012;SDS011;52783;50.502;8.190;2024-03-23T06:49:20;6.55;;;2.55;;
66012;SDS011;52783;50.502;8.190;2024-03-23T06:51:45;8.13;;;2.67;;
66012;SDS011;52783;50.502;8.190;2024-03-23T06:54:11;7.97;;;2.47;;
66012;SDS011;52783;50.502;8.190;2024-03-23T06:56:37;5.55;;;2.72;;
66012;SDS011;52783;50.502;8.190;2024-03-23T06:59:02;7.80;;;3.63;;
66012;SDS011;52783;50.502;8.190;2024-03-23T07:01:28;10.05;;;3.35;;
66012;SDS011;52783;50.502;8.190;2024-03-23T07:03:54;12.85;;;4.10;;
66012;SDS011;52783;50.502;8.190;2024-03-23T07:06:20;10.40;;;4.05;;
66012;SDS011;52783;50.502;8.190;2024-03-23T07:08:45;9.52;;;3.75;;
66012;SDS011;52783;50.502;8.190;2024-03-23T07:11:11;6.78;;;3.60;;
66012;SDS011;52783;50.502;8.190;2024-03-23T07:13:36;9.38;;;4.10;;
66012;SDS011;52783;50.502;8.190;2024-03-23T07:16:02;10.95;;;4.10;;
66012;SDS011;52783;50.502;8.190;2024-03-23T07:18:28;17.13;;;4.63;;
66012;SDS011;52783;50.502;8.190;2024-03-23T07:20:54;10.25;;;3.92;;
66012;SDS011;52783;50.502;8.190;2024-03-23T07:23:23;12.05;;;4.07;;
66012;SDS011;52783;50.502;8.190;2024-03-23T07:25:56;11.57;;;3.85;;
66012;SDS011;52783;50.502;8.190;2024-03-23T07:28:25;10.88;;;4.28;;
66012;SDS011;52783;50.502;8.190;2024-03-23T07:31:07;14.10;;;4.57;;
66012;SDS011;52783;50.502;8.190;2024-03-23T07:33:34;9.48;;;3.92;;
66012;SDS011;52783;50.502;8.190;2024-03-23T07:36:00;15.60;;;4.30;;
66012;SDS011;52783;50.502;8.190;2024-03-23T07:38:26;9.82;;;4.70;;
66012;SDS011;52783;50.502;8.190;2024-03-23T07:40:57;8.85;;;4.35;;
66012;SDS011;52783;50.502;8.190;2024-03-23T07:43:30;11.80;;;5.10;;
66012;SDS011;52783;50.502;8.190;2024-03-23T07:45:56;14.45;;;4.35;;
66012;SDS011;52783;50.502;8.190;2024-03-23T07:48:21;11.48;;;5.18;;
66012;SDS011;52783;50.502;8.190;2024-03-23T07:51:00;14.57;;;5.68;;
66012;SDS011;52783;50.502;8.190;2024-03-23T07:53:33;13.55;;;5.50;;
66012;SDS011;52783;50.502;8.190;2024-03-23T07:56:04;13.68;;;4.95;;
66012;SDS011;52783;50.502;8.190;2024-03-23T07:58:34;15.50;;;5.82;;
66012;SDS011;52783;50.502;8.190;2024-03-23T08:01:08;16.48;;;4.72;;
66012;SDS011;52783;50.502;8.190;2024-03-23T08:03:37;14.40;;;4.82;;
66012;SDS011;52783;50.502;8.190;2024-03-23T08:08:39;10.70;;;4.30;;
66012;SDS011;52783;50.502;8.190;2024-03-23T08:11:05;14.88;;;4.43;;
66012;SDS011;52783;50.502;8.190;2024-03-23T08:13:31;17.30;;;4.70;;
66012;SDS011;52783;50.502;8.190;2024-03-23T08:15:57;13.48;;;4.05;;
66012;SDS011;52783;50.502;8.190;2024-03-23T08:18:23;17.67;;;4.65;;
66012;SDS011;52783;50.502;8.190;2024-03-23T08:20:58;15.70;;;4.28;;
66012;SDS011;52783;50.502;8.190;2024-03-23T08:23:25;8.30;;;3.83;;
66012;SDS011;52783;50.502;8.190;2024-03-23T08:25:52;21.33;;;4.85;;
66012;SDS011;52783;50.502;8.190;2024-03-23T08:28:22;11.45;;;4.22;;
66012;SDS011;52783;50.502;8.190;2024-03-23T08:30:47;13.18;;;4.32;;
66012;SDS011;52783;50.502;8.190;2024-03-23T08:33:14;19.83;;;5.00;;
66012;SDS011;52783;50.502;8.190;2024-03-23T08:35:40;18.00;;;4.22;;
66012;SDS011;52783;50.502;8.190;2024-03-23T08:38:06;16.30;;;4.25;;
66012;SDS011;52783;50.502;8.190;2024-03-23T08:40:32;18.23;;;4.70;;
66012;SDS011;52783;50.502;8.190;2024-03-23T08:42:57;13.05;;;3.90;;
66012;SDS011;52783;50.502;8.190;2024-03-23T08:45:24;17.45;;;4.45;;
66012;SDS011;52783;50.502;8.190;2024-03-23T08:47:50;19.50;;;5.45;;
66012;SDS011;52783;50.502;8.190;2024-03-23T08:50:15;19.95;;;4.65;;
66012;SDS011;52783;50.502;8.190;2024-03-23T08:52:41;15.07;;;4.45;;
66012;SDS011;52783;50.502;8.190;2024-03-23T08:55:07;15.38;;;3.88;;
66012;SDS011;52783;50.502;8.190;2024-03-23T08:57:32;20.20;;;4.18;;
66012;SDS011;52783;50.502;8.190;2024-03-23T08:59:58;9.90;;;3.50;;
66012;SDS011;52783;50.502;8.190;2024-03-23T09:02:24;16.42;;;3.53;;
66012;SDS011;52783;50.502;8.190;2024-03-23T09:04:49;15.73;;;3.40;;
66012;SDS011;52783;50.502;8.190;2024-03-23T09:07:15;12.77;;;3.45;;
66012;SDS011;52783;50.502;8.190;2024-03-23T09:09:40;18.65;;;3.75;;
66012;SDS011;52783;50.502;8.190;2024-03-23T09:12:06;10.40;;;3.55;;
66012;SDS011;52783;50.502;8.190;2024-03-23T09:14:33;13.32;;;3.70;;
66012;SDS011;52783;50.502;8.190;2024-03-23T09:16:58;17.02;;;3.25;;
66012;SDS011;52783;50.502;8.190;2024-03-23T09:19:26;9.60;;;3.13;;
66012;SDS011;52783;50.502;8.190;2024-03-23T09:21:53;8.82;;;3.00;;
66012;SDS011;52783;50.502;8.190;2024-03-23T09:24:18;12.45;;;3.25;;
66012;SDS011;52783;50.502;8.190;2024-03-23T09:26:44;13.73;;;3.60;;
66012;SDS011;52783;50.502;8.190;2024-03-23T09:29:09;14.90;;;3.70;;
66012;SDS011;52783;50.502;8.190;2024-03-23T09:31:35;13.20;;;3.30;;
66012;SDS011;52783;50.502;8.190;2024-03-23T09:34:01;11.10;;;3.10;;
66012;SDS011;52783;50.502;8.190;2024-03-23T09:36:26;11.98;;;3.20;;
66012;SDS011;52783;50.502;8.190;2024-03-23T09:38:52;12.40;;;3.53;;
66012;SDS011;52783;50.502;8.190;2024-03-23T09:41:17;12.27;;;2.80;;
66012;SDS011;52783;50.502;8.190;2024-03-23T09:43:43;10.43;;;3.17;;
66012;SDS011;52783;50.502;8.190;2024-03-23T09:46:08;7.47;;;2.65;;
66012;SDS011;52783;50.502;8.190;2024-03-23T09:48:34;7.82;;;2.15;;
66012;SDS011;52783;50.502;8.190;2024-03-23T09:51:00;5.80;;;1.60;;
66012;SDS011;52783;50.502;8.190;2024-03-23T09:53:27;4.43;;;1.80;;
66012;SDS011;52783;50.502;8.190;2024-03-23T09:55:53;6.07;;;2.20;;
66012;SDS011;52783;50.502;8.190;2024-03-23T09:58:19;6.38;;;2.28;;
66012;SDS011;52783;50.502;8.190;2024-03-23T10:00:46;4.28;;;1.63;;
66012;SDS011;52783;50.502;8.190;2024-03-23T10:03:11;5.28;;;1.40;;
66012;SDS011;52783;50.502;8.190;2024-03-23T10:05:38;5.72;;;1.63;;
66012;SDS011;52783;50.502;8.190;2024-03-23T10:10:38;4.97;;;1.70;;
66012;SDS011;52783;50.502;8.190;2024-03-23T10:13:04;3.83;;;1.83;;
66012;SDS011;52783;50.502;8.190;2024-03-23T10:15:29;5.95;;;1.67;;
66012;SDS011;52783;50.502;8.190;2024-03-23T10:17:58;5.32;;;1.60;;
66012;SDS011;52783;50.502;8.190;2024-03-23T10:20:52;3.28;;;1.70;;
66012;SDS011;52783;50.502;8.190;2024-03-23T10:23:31;6.72;;;1.80;;
66012;SDS011;52783;50.502;8.190;2024-03-23T10:26:21;6.53;;;1.63;;
66012;SDS011;52783;50.502;8.190;2024-03-23T10:29:05;4.63;;;1.70;;
66012;SDS011;52783;50.502;8.190;2024-03-23T10:31:35;8.10;;;2.00;;
66012;SDS011;52783;50.502;8.190;2024-03-23T10:34:02;6.22;;;1.88;;
66012;SDS011;52783;50.502;8.190;2024-03-23T10:36:28;6.28;;;2.00;;
66012;SDS011;52783;50.502;8.190;2024-03-23T10:38:57;8.00;;;2.60;;
66012;SDS011;52783;50.502;8.190;2024-03-23T10:41:31;6.38;;;2.67;;
66012;SDS011;52783;50.502;8.190;2024-03-23T10:43:57;10.52;;;2.33;;
66012;SDS011;52783;50.502;8.190;2024-03-23T10:46:24;7.53;;;2.85;;
66012;SDS011;52783;50.502;8.190;2024-03-23T10:48:50;6.65;;;2.15;;
66012;SDS011;52783;50.502;8.190;2024-03-23T10:51:15;7.72;;;2.50;;
66012;SDS011;52783;50.502;8.190;2024-03-23T10:53:41;10.85;;;2.47;;
66012;SDS011;52783;50.502;8.190;2024-03-23T10:56:07;7.38;;;2.50;;
66012;SDS011;52783;50.502;8.190;2024-03-23T10:58:39;10.48;;;2.72;;
66012;SDS011;52783;50.502;8.190;2024-03-23T11:01:07;6.13;;;2.10;;
66012;SDS011;52783;50.502;8.190;2024-03-23T11:03:36;4.45;;;1.70;;
66012;SDS011;52783;50.502;8.190;2024-03-23T11:06:04;4.53;;;1.90;;
66012;SDS011;52783;50.502;8.190;2024-03-23T11:08:37;7.00;;;2.10;;
66012;SDS011;52783;50.502;8.190;2024-03-23T11:11:13;10.27;;;2.60;;
66012;SDS011;52783;50.502;8.190;2024-03-23T11:13:39;10.15;;;2.40;;
66012;SDS011;52783;50.502;8.190;2024-03-23T11:16:15;5.80;;;2.55;;
66012;SDS011;52783;50.502;8.190;2024-03-23T11:18:41;5.80;;;2.25;;
66012;SDS011;52783;50.502;8.190;2024-03-23T11:21:08;12.45;;;2.50;;
66012;SDS011;52783;50.502;8.190;2024-03-23T11:23:34;5.50;;;1.70;;
66012;SDS011;52783;50.502;8.190;2024-03-23T11:25:59;6.63;;;1.80;;
66012;SDS011;52783;50.502;8.190;2024-03-23T11:28:25;5.40;;;2.10;;
66012;SDS011;52783;50.502;8.190;2024-03-23T11:30:51;6.55;;;2.03;;
66012;SDS011;52783;50.502;8.190;2024-03-23T11:33:16;7.85;;;2.22;;
66012;SDS011;52783;50.502;8.190;2024-03-23T11:35:42;5.32;;;2.22;;
66012;SDS011;52783;50.502;8.190;2024-03-23T11:38:09;7.60;;;1.90;;
66012;SDS011;52783;50.502;8.190;2024-03-23T11:40:44;8.27;;;2.33;;
66012;SDS011;52783;50.502;8.190;2024-03-23T11:43:14;8.25;;;2.40;;
66012;SDS011;52783;50.502;8.190;2024-03-23T11:45:51;7.03;;;2.10;;
66012;SDS011;52783;50.502;8.190;2024-03-23T11:48:18;6.45;;;2.10;;
66012;SDS011;52783;50.502;8.190;2024-03-23T11:50:46;12.45;;;2.63;;
66012;SDS011;52783;50.502;8.190;2024-03-23T11:53:13;11.00;;;2.58;;
66012;SDS011;52783;50.502;8.190;2024-03-23T11:55:49;6.60;;;2.30;;
66012;SDS011;52783;50.502;8.190;2024-03-23T11:58:17;4.05;;;1.70;;
66012;SDS011;52783;50.502;8.190;2024-03-23T12:03:22;3.15;;;1.45;;
66012;SDS011;52783;50.502;8.190;2024-03-23T12:05:51;4.53;;;1.52;;
66012;SDS011;52783;50.502;8.190;2024-03-23T12:08:23;3.67;;;1.65;;
66012;SDS011;52783;50.502;8.190;2024-03-23T12:11:10;3.70;;;1.70;;
66012;SDS011;52783;50.502;8.190;2024-03-23T12:13:37;2.78;;;1.15;;
66012;SDS011;52783;50.502;8.190;2024-03-23T12:16:14;3.25;;;1.23;;
66012;SDS011;52783;50.502;8.190;2024-03-23T12:18:41;3.05;;;1.50;;
66012;SDS011;52783;50.502;8.190;2024-03-23T12:21:08;1.80;;;1.20;;
66012;SDS011;52783;50.502;8.190;2024-03-23T12:23:34;3.55;;;1.42;;
66012;SDS011;52783;50.502;8.190;2024-03-23T12:26:00;2.92;;;1.40;;
66012;SDS011;52783;50.502;8.190;2024-03-23T12:28:26;1.83;;;1.02;;
66012;SDS011;52783;50.502;8.190;2024-03-23T12:30:52;6.40;;;1.90;;
66012;SDS011;52783;50.502;8.190;2024-03-23T12:33:19;4.30;;;1.70;;
66012;SDS011;52783;50.502;8.190;2024-03-23T12:35:45;2.63;;;1.33;;
66012;SDS011;52783;50.502;8.190;2024-03-23T12:38:10;3.10;;;1.73;;
66012;SDS011;52783;50.502;8.190;2024-03-23T12:40:36;6.35;;;1.35;;
66012;SDS011;52783;50.502;8.190;2024-03-23T12:43:01;3.63;;;1.42;;
66012;SDS011;52783;50.502;8.190;2024-03-23T12:45:27;2.25;;;1.00;;
66012;SDS011;52783;50.502;8.190;2024-03-23T12:47:52;4.40;;;1.65;;
66012;SDS011;52783;50.502;8.190;2024-03-23T12:50:19;1.45;;;1.10;;
66012;SDS011;52783;50.502;8.190;2024-03-23T12:52:45;1.90;;;1.30;;
66012;SDS011;52783;50.502;8.190;2024-03-23T12:55:10;4.55;;;1.20;;
66012;SDS011;52783;50.502;8.190;2024-03-23T12:57:36;3.15;;;1.30;;
66012;SDS011;52783;50.502;8.190;2024-03-23T13:00:01;1.50;;;1.13;;
66012;SDS011;52783;50.502;8.190;2024-03-23T13:02:28;3.03;;;1.20;;
66012;SDS011;52783;50.502;8.190;2024-03-23T13:04:54;1.48;;;1.30;;
66012;SDS011;52783;50.502;8.190;2024-03-23T13:07:20;2.67;;;1.20;;
66012;SDS011;52783;50.502;8.190;2024-03-23T13:09:49;3.10;;;1.30;;
66012;SDS011;52783;50.502;8.190;2024-03-23T13:12:15;2.33;;;1.63;;
66012;SDS011;52783;50.502;8.190;2024-03-23T13:14:42;3.20;;;1.30;;
66012;SDS011;52783;50.502;8.190;2024-03-23T13:17:07;5.63;;;1.77;;
66012;SDS011;52783;50.502;8.190;2024-03-23T13:19:33;1.63;;;1.25;;
66012;SDS011;52783;50.502;8.190;2024-03-23T13:21:59;2.78;;;1.30;;
66012;SDS011;52783;50.502;8.190;2024-03-23T13:24:26;2.90;;;1.45;;
66012;SDS011;52783;50.502;8.190;2024-03-23T13:26:52;9.55;;;1.52;;
66012;SDS011;52783;50.502;8.190;2024-03-23T13:29:19;5.55;;;2.08;;
66012;SDS011;52783;50.502;8.190;2024-03-23T13:31:45;2.33;;;1.25;;
66012;SDS011;52783;50.502;8.190;2024-03-23T13:34:11;3.20;;;1.40;;
66012;SDS011;52783;50.502;8.190;2024-03-23T13:36:39;1.27;;;1.17;;
66012;SDS011;52783;50.502;8.190;2024-03-23T13:39:06;2.10;;;1.70;;
66012;SDS011;52783;50.502;8.190;2024-03-23T13:41:36;1.65;;;1.33;;
66012;SDS011;52783;50.502;8.190;2024-03-23T13:44:05;2.45;;;1.67;;
66012;SDS011;52783;50.502;8.190;2024-03-23T13:46:32;2.13;;;1.20;;
66012;SDS011;52783;50.502;8.190;2024-03-23T13:48:58;2.17;;;1.35;;
66012;SDS011;52783;50.502;8.190;2024-03-23T13:51:23;2.33;;;1.45;;
66012;SDS011;52783;50.502;8.190;2024-03-23T13:53:52;3.15;;;1.63;;
66012;SDS011;52783;50.502;8.190;2024-03-23T13:56:18;2.25;;;1.52;;
66012;SDS011;52783;50.502;8.190;2024-03-23T13:58:43;3.58;;;1.77;;
66012;SDS011;52783;50.502;8.190;2024-03-23T14:01:11;1.60;;;1.23;;
66012;SDS011;52783;50.502;8.190;2024-03-23T14:03:38;3.15;;;1.52;;
66012;SDS011;52783;50.502;8.190;2024-03-23T14:06:03;3.60;;;1.40;;
66012;SDS011;52783;50.502;8.190;2024-03-23T14:08:29;1.50;;;1.40;;
66012;SDS011;52783;50.502;8.190;2024-03-23T14:10:58;2.28;;;1.75;;
66012;SDS011;52783;50.502;8.190;2024-03-23T14:13:23;1.77;;;1.58;;
66012;SDS011;52783;50.502;8.190;2024-03-23T14:15:52;2.20;;;1.40;;
66012;SDS011;52783;50.502;8.190;2024-03-23T14:18:18;2.65;;;1.80;;
66012;SDS011;52783;50.502;8.190;2024-03-23T14:20:44;3.83;;;2.05;;
66012;SDS011;52783;50.502;8.190;2024-03-23T14:23:09;3.05;;;2.22;;
66012;SDS011;52783;50.502;8.190;2024-03-23T14:25:35;4.05;;;2.42;;
66012;SDS011;52783;50.502;8.190;2024-03-23T14:28:00;8.32;;;3.15;;
66012;SDS011;52783;50.502;8.190;2024-03-23T14:30:25;6.05;;;3.30;;
66012;SDS011;52783;50.502;8.190;2024-03-23T14:32:51;5.07;;;2.10;;
66012;SDS011;52783;50.502;8.190;2024-03-23T14:35:16;3.10;;;1.73;;
66012;SDS011;52783;50.502;8.190;2024-03-23T14:37:42;2.42;;;1.90;;
66012;SDS011;52783;50.502;8.190;2024-03-23T14:40:08;1.90;;;1.77;;
66012;SDS011;52783;50.502;8.190;2024-03-23T14:42:33;3.20;;;1.50;;
66012;SDS011;52783;50.502;8.190;2024-03-23T14:44:59;6.65;;;1.80;;
66012;SDS011;52783;50.502;8.190;2024-03-23T14:47:25;2.78;;;1.75;;
66012;SDS011;52783;50.502;8.190;2024-03-23T14:49:50;3.60;;;1.70;;
66012;SDS011;52783;50.502;8.190;2024-03-23T14:52:16;5.93;;;2.10;;
66012;SDS011;52783;50.502;8.190;2024-03-23T14:54:43;2.15;;;1.45;;
66012;SDS011;52783;50.502;8.190;2024-03-23T14:57:09;3.85;;;1.85;;
66012;SDS011;52783;50.502;8.190;2024-03-23T14:59:35;3.47;;;1.70;;
66012;SDS011;52783;50.502;8.190;2024-03-23T15:02:03;9.05;;;2.28;;
66012;SDS011;52783;50.502;8.190;2024-03-23T15:04:29;5.07;;;2.20;;
66012;SDS011;52783;50.502;8.190;2024-03-23T15:06:55;5.68;;;2.10;;
66012;SDS011;52783;50.502;8.190;2024-03-23T15:09:20;4.07;;;2.00;;
66012;SDS011;52783;50.502;8.190;2024-03-23T15:11:45;3.50;;;2.20;;
66012;SDS011;52783;50.502;8.190;2024-03-23T15:14:11;5.57;;;2.80;;
66012;SDS011;52783;50.502;8.190;2024-03-23T15:16:37;4.88;;;2.20;;
66012;SDS011;52783;50.502;8.190;2024-03-23T15:19:02;4.57;;;1.90;;
66012;SDS011;52783;50.502;8.190;2024-03-23T15:21:30;2.33;;;2.10;;
66012;SDS011;52783;50.502;8.190;2024-03-23T15:23:56;5.30;;;1.90;;
66012;SDS011;52783;50.502;8.190;2024-03-23T15:26:22;5.35;;;2.10;;
66012;SDS011;52783;50.502;8.190;2024-03-23T15:28:48;8.95;;;3.05;;
66012;SDS011;52783;50.502;8.190;2024-03-23T15:31:23;3.15;;;2.05;;
66012;SDS011;52783;50.502;8.190;2024-03-23T15:33:49;5.22;;;2.05;;
66012;SDS011;52783;50.502;8.190;2024-03-23T15:36:14;2.15;;;1.73;;
66012;SDS011;52783;50.502;8.190;2024-03-23T15:38:40;2.35;;;1.73;;